sensor_id;sensor_type;location;lat;lon;timestamp;P1;durP1;ratioP1;P2;durP2;ratioP2
4555;SDS011;2290;48.674;9.018;2023-06-22T00:01:16;9.70;;;7.73;;
4555;SDS011;2290;48.674;9.018;2023-06-22T00:03:43;10.67;;;7.43;;
4555;SDS011;2290;48.674;9.018;2023-06-22T00:06:09;9.90;;;7.00;;
4555;SDS011;2290;48.674;9.018;2023-06-22T00:08:35;11.07;;;7.43;;
4555;SDS011;2290;48.674;9.018;2023-06-22T00:11:01;12.63;;;7.90;;
4555;SDS011;2290;48.674;9.018;2023-06-22T00:13:26;11.70;;;8.10;;
4555;SDS011;2290;48.674;9.018;2023-06-22T00:15:56;10.47;;;7.90;;
4555;SDS011;2290;48.674;9.018;2023-06-22T00:18:22;12.93;;;6.90;;
4555;SDS011;2290;48.674;9.018;2023-06-22T00:20:52;11.03;;;7.67;;
4555;SDS011;2290;48.674;9.018;2023-06-22T00:23:25;9.87;;;6.83;;
4555;SDS011;2290;48.674;9.018;2023-06-22T00:25:51;10.03;;;7.67;;
4555;SDS011;2290;48.674;9.018;2023-06-22T00:28:17;9.57;;;6.87;;
4555;SDS011;2290;48.674;9.018;2023-06-22T00:30:43;11.80;;;7.10;;
4555;SDS011;2290;48.674;9.018;2023-06-22T00:33:08;10.53;;;7.17;;
4555;SDS011;2290;48.674;9.018;2023-06-22T00:35:34;10.47;;;7.30;;
4555;SDS011;2290;48.674;9.018;2023-06-22T00:38:00;11.83;;;7.40;;
4555;SDS011;2290;48.674;9.018;2023-06-22T00:40:28;11.80;;;7.43;;
4555;SDS011;2290;48.674;9.018;2023-06-22T00:42:55;12.20;;;8.57;;
4555;SDS011;2290;48.674;9.018;2023-06-22T00:45:21;9.73;;;7.90;;
4555;SDS011;2290;48.674;9.018;2023-06-22T00:47:51;11.37;;;7.87;;
4555;SDS011;2290;48.674;9.018;2023-06-22T00:50:23;13.00;;;7.73;;
4555;SDS011;2290;48.674;9.018;2023-06-22T00:52:51;10.63;;;7.67;;
4555;SDS011;2290;48.674;9.018;2023-06-22T00:55:24;9.43;;;7.03;;
4555;SDS011;2290;48.674;9.018;2023-06-22T00:57:53;11.50;;;7.80;;
4555;SDS011;2290;48.674;9.018;2023-06-22T01:00:20;10.07;;;7.80;;
4555;SDS011;2290;48.674;9.018;2023-06-22T01:02:49;9.30;;;7.47;;
4555;SDS011;2290;48.674;9.018;2023-06-22T01:05:20;10.63;;;7.70;;
4555;SDS011;2290;48.674;9.018;2023-06-22T01:10:53;9.47;;;7.90;;
4555;SDS011;2290;48.674;9.018;2023-06-22T01:13:37;12.27;;;7.50;;
4555;SDS011;2290;48.674;9.018;2023-06-22T01:16:26;11.50;;;7.80;;
4555;SDS011;2290;48.674;9.018;2023-06-22T01:18:57;11.40;;;7.73;;
4555;SDS011;2290;48.674;9.018;2023-06-22T01:21:32;13.53;;;8.20;;
4555;SDS011;2290;48.674;9.018;2023-06-22T01:29:43;14.50;;;8.57;;
4555;SDS011;2290;48.674;9.018;2023-06-22T01:32:12;10.47;;;7.23;;
4555;SDS011;2290;48.674;9.018;2023-06-22T01:34:41;10.50;;;7.43;;
4555;SDS011;2290;48.674;9.018;2023-06-22T01:37:07;9.63;;;7.07;;
4555;SDS011;2290;48.674;9.018;2023-06-22T01:39:33;10.20;;;7.10;;
4555;SDS011;2290;48.674;9.018;2023-06-22T01:42:00;10.13;;;7.10;;
4555;SDS011;2290;48.674;9.018;2023-06-22T01:44:27;10.27;;;7.97;;
4555;SDS011;2290;48.674;9.018;2023-06-22T01:46:55;11.30;;;7.40;;
4555;SDS011;2290;48.674;9.018;2023-06-22T01:49:21;11.93;;;7.97;;
4555;SDS011;2290;48.674;9.018;2023-06-22T01:51:47;12.30;;;7.93;;
4555;SDS011;2290;48.674;9.018;2023-06-22T01:54:14;12.27;;;7.90;;
4555;SDS011;2290;48.674;9.018;2023-06-22T01:56:39;13.53;;;7.10;;
4555;SDS011;2290;48.674;9.018;2023-06-22T01:59:09;10.33;;;7.40;;
4555;SDS011;2290;48.674;9.018;2023-06-22T02:01:45;11.90;;;7.03;;
4555;SDS011;2290;48.674;9.018;2023-06-22T02:04:21;13.00;;;7.73;;
4555;SDS011;2290;48.674;9.018;2023-06-22T02:06:54;11.20;;;7.43;;
4555;SDS011;2290;48.674;9.018;2023-06-22T02:09:22;8.70;;;6.83;;
4555;SDS011;2290;48.674;9.018;2023-06-22T02:11:50;12.80;;;7.63;;
4555;SDS011;2290;48.674;9.018;2023-06-22T02:14:19;12.50;;;6.83;;
4555;SDS011;2290;48.674;9.018;2023-06-22T02:16:48;11.60;;;7.53;;
4555;SDS011;2290;48.674;9.018;2023-06-22T02:19:17;10.40;;;7.00;;
4555;SDS011;2290;48.674;9.018;2023-06-22T02:21:48;11.37;;;7.03;;
4555;SDS011;2290;48.674;9.018;2023-06-22T02:24:15;10.77;;;7.00;;
4555;SDS011;2290;48.674;9.018;2023-06-22T02:26:41;10.47;;;7.13;;
4555;SDS011;2290;48.674;9.018;2023-06-22T02:29:09;10.97;;;7.43;;
4555;SDS011;2290;48.674;9.018;2023-06-22T02:31:35;10.07;;;7.07;;
4555;SDS011;2290;48.674;9.018;2023-06-22T02:34:00;9.33;;;6.97;;
4555;SDS011;2290;48.674;9.018;2023-06-22T02:36:26;10.23;;;7.17;;
4555;SDS011;2290;48.674;9.018;2023-06-22T02:38:55;12.10;;;7.97;;
4555;SDS011;2290;48.674;9.018;2023-06-22T02:41:25;10.10;;;6.87;;
4555;SDS011;2290;48.674;9.018;2023-06-22T02:43:51;12.13;;;7.70;;
4555;SDS011;2290;48.674;9.018;2023-06-22T02:46:18;10.67;;;7.40;;
4555;SDS011;2290;48.674;9.018;2023-06-22T02:48:44;15.00;;;7.93;;
4555;SDS011;2290;48.674;9.018;2023-06-22T02:51:11;12.90;;;7.60;;
4555;SDS011;2290;48.674;9.018;2023-06-22T02:53:38;11.47;;;7.30;;
4555;SDS011;2290;48.674;9.018;2023-06-22T02:56:03;10.03;;;6.70;;
4555;SDS011;2290;48.674;9.018;2023-06-22T02:58:30;9.00;;;6.67;;
4555;SDS011;2290;48.674;9.018;2023-06-22T03:01:05;11.93;;;7.37;;
4555;SDS011;2290;48.674;9.018;2023-06-22T03:03:31;9.83;;;6.83;;
4555;SDS011;2290;48.674;9.018;2023-06-22T03:05:57;15.90;;;6.50;;
4555;SDS011;2290;48.674;9.018;2023-06-22T03:08:28;12.07;;;6.90;;
4555;SDS011;2290;48.674;9.018;2023-06-22T03:10:54;12.33;;;7.53;;
4555;SDS011;2290;48.674;9.018;2023-06-22T03:13:20;11.90;;;6.90;;
4555;SDS011;2290;48.674;9.018;2023-06-22T03:15:45;11.83;;;7.03;;
4555;SDS011;2290;48.674;9.018;2023-06-22T03:18:11;13.27;;;7.47;;
4555;SDS011;2290;48.674;9.018;2023-06-22T03:20:38;9.40;;;7.13;;
4555;SDS011;2290;48.674;9.018;2023-06-22T03:23:04;8.67;;;6.60;;
4555;SDS011;2290;48.674;9.018;2023-06-22T03:25:30;9.47;;;7.33;;
4555;SDS011;2290;48.674;9.018;2023-06-22T03:27:55;11.27;;;7.33;;
4555;SDS011;2290;48.674;9.018;2023-06-22T03:30:21;16.50;;;6.80;;
4555;SDS011;2290;48.674;9.018;2023-06-22T03:32:47;11.20;;;6.80;;
4555;SDS011;2290;48.674;9.018;2023-06-22T03:35:12;9.77;;;6.53;;
4555;SDS011;2290;48.674;9.018;2023-06-22T03:37:40;10.10;;;6.83;;
4555;SDS011;2290;48.674;9.018;2023-06-22T03:40:06;11.70;;;6.30;;
4555;SDS011;2290;48.674;9.018;2023-06-22T03:42:33;9.50;;;6.90;;
4555;SDS011;2290;48.674;9.018;2023-06-22T03:45:01;9.23;;;6.73;;
4555;SDS011;2290;48.674;9.018;2023-06-22T03:47:28;8.80;;;6.77;;
4555;SDS011;2290;48.674;9.018;2023-06-22T03:49:55;14.27;;;6.70;;
4555;SDS011;2290;48.674;9.018;2023-06-22T03:52:22;10.00;;;6.80;;
4555;SDS011;2290;48.674;9.018;2023-06-22T03:54:47;9.90;;;6.23;;
4555;SDS011;2290;48.674;9.018;2023-06-22T03:57:13;10.73;;;7.20;;
4555;SDS011;2290;48.674;9.018;2023-06-22T03:59:38;8.43;;;6.67;;
4555;SDS011;2290;48.674;9.018;2023-06-22T04:02:04;8.33;;;5.87;;
4555;SDS011;2290;48.674;9.018;2023-06-22T04:04:30;9.97;;;6.50;;
4555;SDS011;2290;48.674;9.018;2023-06-22T04:06:55;11.67;;;7.03;;
4555;SDS011;2290;48.674;9.018;2023-06-22T04:09:21;10.27;;;6.60;;
4555;SDS011;2290;48.674;9.018;2023-06-22T04:11:47;9.90;;;6.23;;
4555;SDS011;2290;48.674;9.018;2023-06-22T04:14:12;11.70;;;6.83;;
4555;SDS011;2290;48.674;9.018;2023-06-22T04:16:38;10.90;;;6.53;;
4555;SDS011;2290;48.674;9.018;2023-06-22T04:19:04;9.50;;;6.07;;
4555;SDS011;2290;48.674;9.018;2023-06-22T04:21:29;10.63;;;6.37;;
4555;SDS011;2290;48.674;9.018;2023-06-22T04:23:55;10.17;;;6.43;;
4555;SDS011;2290;48.674;9.018;2023-06-22T04:26:20;11.23;;;6.73;;
4555;SDS011;2290;48.674;9.018;2023-06-22T04:28:46;8.80;;;6.47;;
4555;SDS011;2290;48.674;9.018;2023-06-22T04:31:16;7.77;;;5.63;;
4555;SDS011;2290;48.674;9.018;2023-06-22T04:33:44;9.83;;;6.17;;
4555;SDS011;2290;48.674;9.018;2023-06-22T04:36:09;8.87;;;6.30;;
4555;SDS011;2290;48.674;9.018;2023-06-22T04:38:38;9.00;;;7.00;;
4555;SDS011;2290;48.674;9.018;2023-06-22T04:41:04;11.60;;;6.37;;
4555;SDS011;2290;48.674;9.018;2023-06-22T04:43:30;9.83;;;6.90;;
4555;SDS011;2290;48.674;9.018;2023-06-22T04:45:58;9.20;;;6.80;;
4555;SDS011;2290;48.674;9.018;2023-06-22T04:48:28;9.43;;;6.90;;
4555;SDS011;2290;48.674;9.018;2023-06-22T04:50:57;9.50;;;6.33;;
4555;SDS011;2290;48.674;9.018;2023-06-22T04:53:27;10.27;;;7.60;;
4555;SDS011;2290;48.674;9.018;2023-06-22T04:55:54;10.80;;;6.37;;
4555;SDS011;2290;48.674;9.018;2023-06-22T04:58:20;15.50;;;6.90;;
4555;SDS011;2290;48.674;9.018;2023-06-22T05:00:46;11.00;;;7.10;;
4555;SDS011;2290;48.674;9.018;2023-06-22T05:03:12;11.73;;;6.60;;
4555;SDS011;2290;48.674;9.018;2023-06-22T05:05:37;8.33;;;6.40;;
4555;SDS011;2290;48.674;9.018;2023-06-22T05:08:03;11.37;;;6.43;;
4555;SDS011;2290;48.674;9.018;2023-06-22T05:10:32;12.93;;;7.17;;
4555;SDS011;2290;48.674;9.018;2023-06-22T05:12:58;10.03;;;7.00;;
4555;SDS011;2290;48.674;9.018;2023-06-22T05:15:23;9.53;;;7.03;;
4555;SDS011;2290;48.674;9.018;2023-06-22T05:17:53;10.60;;;6.40;;
4555;SDS011;2290;48.674;9.018;2023-06-22T05:20:18;8.47;;;6.27;;
4555;SDS011;2290;48.674;9.018;2023-06-22T05:22:44;11.20;;;6.60;;
4555;SDS011;2290;48.674;9.018;2023-06-22T05:25:10;9.03;;;6.60;;
4555;SDS011;2290;48.674;9.018;2023-06-22T05:27:36;8.83;;;6.40;;
4555;SDS011;2290;48.674;9.018;2023-06-22T05:30:08;12.90;;;6.53;;
4555;SDS011;2290;48.674;9.018;2023-06-22T05:32:36;8.70;;;6.00;;
4555;SDS011;2290;48.674;9.018;2023-06-22T05:35:02;9.27;;;6.70;;
4555;SDS011;2290;48.674;9.018;2023-06-22T05:37:30;14.60;;;6.43;;
4555;SDS011;2290;48.674;9.018;2023-06-22T05:39:56;10.50;;;7.53;;
4555;SDS011;2290;48.674;9.018;2023-06-22T05:42:22;7.90;;;5.93;;
4555;SDS011;2290;48.674;9.018;2023-06-22T05:44:48;9.30;;;6.30;;
4555;SDS011;2290;48.674;9.018;2023-06-22T05:47:13;10.10;;;5.90;;
4555;SDS011;2290;48.674;9.018;2023-06-22T05:49:39;10.40;;;6.03;;
4555;SDS011;2290;48.674;9.018;2023-06-22T05:52:04;8.77;;;5.90;;
4555;SDS011;2290;48.674;9.018;2023-06-22T05:54:31;8.80;;;5.90;;
4555;SDS011;2290;48.674;9.018;2023-06-22T05:56:56;6.37;;;5.20;;
4555;SDS011;2290;48.674;9.018;2023-06-22T05:59:22;11.63;;;7.70;;
4555;SDS011;2290;48.674;9.018;2023-06-22T06:01:47;7.20;;;5.57;;
4555;SDS011;2290;48.674;9.018;2023-06-22T06:04:17;8.00;;;5.57;;
4555;SDS011;2290;48.674;9.018;2023-06-22T06:06:43;7.93;;;5.40;;
4555;SDS011;2290;48.674;9.018;2023-06-22T06:09:08;7.93;;;5.50;;
4555;SDS011;2290;48.674;9.018;2023-06-22T06:11:34;10.57;;;5.20;;
4555;SDS011;2290;48.674;9.018;2023-06-22T06:13:59;8.27;;;5.60;;
4555;SDS011;2290;48.674;9.018;2023-06-22T06:16:25;7.30;;;5.20;;
4555;SDS011;2290;48.674;9.018;2023-06-22T06:18:51;7.67;;;4.90;;
4555;SDS011;2290;48.674;9.018;2023-06-22T06:21:18;8.97;;;6.07;;
4555;SDS011;2290;48.674;9.018;2023-06-22T06:23:43;10.37;;;5.60;;
4555;SDS011;2290;48.674;9.018;2023-06-22T06:26:09;8.40;;;4.83;;
4555;SDS011;2290;48.674;9.018;2023-06-22T06:28:35;5.10;;;4.20;;
4555;SDS011;2290;48.674;9.018;2023-06-22T06:31:00;6.30;;;4.63;;
4555;SDS011;2290;48.674;9.018;2023-06-22T06:33:26;7.50;;;4.93;;
4555;SDS011;2290;48.674;9.018;2023-06-22T06:35:52;6.20;;;4.60;;
4555;SDS011;2290;48.674;9.018;2023-06-22T06:38:17;8.30;;;5.20;;
4555;SDS011;2290;48.674;9.018;2023-06-22T06:40:43;7.90;;;5.20;;
4555;SDS011;2290;48.674;9.018;2023-06-22T06:43:10;8.07;;;4.80;;
4555;SDS011;2290;48.674;9.018;2023-06-22T06:45:36;7.10;;;5.03;;
4555;SDS011;2290;48.674;9.018;2023-06-22T06:48:02;6.00;;;4.43;;
4555;SDS011;2290;48.674;9.018;2023-06-22T06:50:28;8.00;;;4.60;;
4555;SDS011;2290;48.674;9.018;2023-06-22T06:52:54;7.07;;;4.53;;
4555;SDS011;2290;48.674;9.018;2023-06-22T06:55:21;8.10;;;4.10;;
4555;SDS011;2290;48.674;9.018;2023-06-22T06:57:50;7.83;;;4.50;;
4555;SDS011;2290;48.674;9.018;2023-06-22T07:00:17;6.40;;;4.40;;
4555;SDS011;2290;48.674;9.018;2023-06-22T07:02:44;6.50;;;4.53;;
4555;SDS011;2290;48.674;9.018;2023-06-22T07:05:11;6.67;;;4.13;;
4555;SDS011;2290;48.674;9.018;2023-06-22T07:07:37;7.30;;;3.70;;
4555;SDS011;2290;48.674;9.018;2023-06-22T07:10:03;5.80;;;4.33;;
4555;SDS011;2290;48.674;9.018;2023-06-22T07:12:30;6.90;;;4.33;;
4555;SDS011;2290;48.674;9.018;2023-06-22T07:15:01;8.63;;;4.33;;
4555;SDS011;2290;48.674;9.018;2023-06-22T07:17:33;6.87;;;4.63;;
4555;SDS011;2290;48.674;9.018;2023-06-22T07:19:58;7.20;;;4.70;;
4555;SDS011;2290;48.674;9.018;2023-06-22T07:22:24;8.77;;;4.93;;
4555;SDS011;2290;48.674;9.018;2023-06-22T07:24:50;5.90;;;4.03;;
4555;SDS011;2290;48.674;9.018;2023-06-22T07:27:16;6.50;;;4.40;;
4555;SDS011;2290;48.674;9.018;2023-06-22T07:29:45;9.03;;;4.40;;
4555;SDS011;2290;48.674;9.018;2023-06-22T07:32:11;8.07;;;4.80;;
4555;SDS011;2290;48.674;9.018;2023-06-22T07:34:36;5.90;;;4.50;;
4555;SDS011;2290;48.674;9.018;2023-06-22T07:37:02;6.37;;;4.40;;
4555;SDS011;2290;48.674;9.018;2023-06-22T07:39:29;7.73;;;4.50;;
4555;SDS011;2290;48.674;9.018;2023-06-22T07:41:55;7.87;;;4.50;;
4555;SDS011;2290;48.674;9.018;2023-06-22T07:44:20;8.87;;;4.60;;
4555;SDS011;2290;48.674;9.018;2023-06-22T07:46:46;9.00;;;4.80;;
4555;SDS011;2290;48.674;9.018;2023-06-22T07:49:12;8.50;;;5.00;;
4555;SDS011;2290;48.674;9.018;2023-06-22T07:51:37;6.80;;;5.03;;
4555;SDS011;2290;48.674;9.018;2023-06-22T07:54:03;8.23;;;4.53;;
4555;SDS011;2290;48.674;9.018;2023-06-22T07:56:28;7.20;;;4.70;;
4555;SDS011;2290;48.674;9.018;2023-06-22T07:58:54;8.17;;;4.60;;
4555;SDS011;2290;48.674;9.018;2023-06-22T08:01:20;7.87;;;4.83;;
4555;SDS011;2290;48.674;9.018;2023-06-22T08:03:47;7.43;;;4.73;;
4555;SDS011;2290;48.674;9.018;2023-06-22T08:06:13;9.70;;;5.10;;
4555;SDS011;2290;48.674;9.018;2023-06-22T08:08:39;7.77;;;4.63;;
4555;SDS011;2290;48.674;9.018;2023-06-22T08:11:05;7.73;;;5.10;;
4555;SDS011;2290;48.674;9.018;2023-06-22T08:13:32;6.80;;;5.00;;
4555;SDS011;2290;48.674;9.018;2023-06-22T08:15:57;7.00;;;4.83;;
4555;SDS011;2290;48.674;9.018;2023-06-22T08:18:24;10.27;;;5.60;;
4555;SDS011;2290;48.674;9.018;2023-06-22T08:20:50;9.87;;;5.37;;
4555;SDS011;2290;48.674;9.018;2023-06-22T08:23:15;10.17;;;4.80;;
4555;SDS011;2290;48.674;9.018;2023-06-22T08:25:41;6.50;;;4.90;;
4555;SDS011;2290;48.674;9.018;2023-06-22T08:28:07;11.90;;;6.00;;
4555;SDS011;2290;48.674;9.018;2023-06-22T08:30:33;9.17;;;5.83;;
4555;SDS011;2290;48.674;9.018;2023-06-22T08:32:59;10.33;;;5.57;;
4555;SDS011;2290;48.674;9.018;2023-06-22T08:35:24;7.83;;;5.50;;
4555;SDS011;2290;48.674;9.018;2023-06-22T08:37:50;6.90;;;5.43;;
4555;SDS011;2290;48.674;9.018;2023-06-22T08:40:17;8.90;;;5.70;;
4555;SDS011;2290;48.674;9.018;2023-06-22T08:42:44;11.00;;;5.37;;
4555;SDS011;2290;48.674;9.018;2023-06-22T08:45:12;7.37;;;5.20;;
4555;SDS011;2290;48.674;9.018;2023-06-22T08:47:38;8.60;;;5.07;;
4555;SDS011;2290;48.674;9.018;2023-06-22T08:50:05;8.43;;;5.30;;
4555;SDS011;2290;48.674;9.018;2023-06-22T08:52:33;9.40;;;5.20;;
4555;SDS011;2290;48.674;9.018;2023-06-22T08:54:59;6.70;;;5.40;;
4555;SDS011;2290;48.674;9.018;2023-06-22T08:57:24;9.00;;;5.30;;
4555;SDS011;2290;48.674;9.018;2023-06-22T08:59:50;6.70;;;4.90;;
4555;SDS011;2290;48.674;9.018;2023-06-22T09:02:17;8.27;;;5.40;;
4555;SDS011;2290;48.674;9.018;2023-06-22T09:04:45;9.03;;;5.50;;
4555;SDS011;2290;48.674;9.018;2023-06-22T09:07:11;8.30;;;5.13;;
4555;SDS011;2290;48.674;9.018;2023-06-22T09:09:36;9.10;;;5.40;;
4555;SDS011;2290;48.674;9.018;2023-06-22T09:12:02;11.20;;;5.77;;
4555;SDS011;2290;48.674;9.018;2023-06-22T09:14:28;11.73;;;5.47;;
4555;SDS011;2290;48.674;9.018;2023-06-22T09:16:53;9.70;;;5.20;;
4555;SDS011;2290;48.674;9.018;2023-06-22T09:19:20;8.20;;;5.43;;
4555;SDS011;2290;48.674;9.018;2023-06-22T09:21:47;6.97;;;5.37;;
4555;SDS011;2290;48.674;9.018;2023-06-22T09:24:14;10.27;;;5.40;;
4555;SDS011;2290;48.674;9.018;2023-06-22T09:26:40;9.40;;;5.90;;
4555;SDS011;2290;48.674;9.018;2023-06-22T09:29:06;8.47;;;5.63;;
4555;SDS011;2290;48.674;9.018;2023-06-22T09:31:34;11.63;;;5.63;;
4555;SDS011;2290;48.674;9.018;2023-06-22T09:33:59;10.10;;;6.77;;
4555;SDS011;2290;48.674;9.018;2023-06-22T09:36:25;8.10;;;5.90;;
4555;SDS011;2290;48.674;9.018;2023-06-22T09:38:51;7.87;;;5.10;;
4555;SDS011;2290;48.674;9.018;2023-06-22T09:41:20;7.73;;;5.27;;
4555;SDS011;2290;48.674;9.018;2023-06-22T09:43:46;9.13;;;5.53;;
4555;SDS011;2290;48.674;9.018;2023-06-22T09:46:14;9.07;;;5.80;;
4555;SDS011;2290;48.674;9.018;2023-06-22T09:48:42;8.10;;;5.80;;
4555;SDS011;2290;48.674;9.018;2023-06-22T09:51:07;7.33;;;5.60;;
4555;SDS011;2290;48.674;9.018;2023-06-22T09:53:33;7.33;;;5.13;;
4555;SDS011;2290;48.674;9.018;2023-06-22T09:56:01;7.40;;;5.10;;
4555;SDS011;2290;48.674;9.018;2023-06-22T09:58:27;13.47;;;5.90;;
4555;SDS011;2290;48.674;9.018;2023-06-22T10:00:53;8.10;;;5.40;;
4555;SDS011;2290;48.674;9.018;2023-06-22T10:03:19;9.97;;;5.50;;
4555;SDS011;2290;48.674;9.018;2023-06-22T10:05:45;10.23;;;5.80;;
4555;SDS011;2290;48.674;9.018;2023-06-22T10:08:11;7.37;;;5.00;;
4555;SDS011;2290;48.674;9.018;2023-06-22T10:10:38;13.43;;;6.63;;
4555;SDS011;2290;48.674;9.018;2023-06-22T10:13:10;7.47;;;5.47;;
4555;SDS011;2290;48.674;9.018;2023-06-22T10:15:37;8.03;;;5.83;;
4555;SDS011;2290;48.674;9.018;2023-06-22T10:18:04;7.03;;;5.70;;
4555;SDS011;2290;48.674;9.018;2023-06-22T10:20:31;10.30;;;5.57;;
4555;SDS011;2290;48.674;9.018;2023-06-22T10:22:57;12.40;;;5.97;;
4555;SDS011;2290;48.674;9.018;2023-06-22T10:25:22;7.63;;;5.17;;
4555;SDS011;2290;48.674;9.018;2023-06-22T10:27:48;8.10;;;5.33;;
4555;SDS011;2290;48.674;9.018;2023-06-22T10:30:14;7.20;;;5.53;;
4555;SDS011;2290;48.674;9.018;2023-06-22T10:32:40;10.33;;;6.53;;
4555;SDS011;2290;48.674;9.018;2023-06-22T10:35:08;8.23;;;5.80;;
4555;SDS011;2290;48.674;9.018;2023-06-22T10:37:54;12.80;;;6.33;;
4555;SDS011;2290;48.674;9.018;2023-06-22T10:40:21;9.60;;;5.83;;
4555;SDS011;2290;48.674;9.018;2023-06-22T10:42:46;11.70;;;5.50;;
4555;SDS011;2290;48.674;9.018;2023-06-22T10:45:12;9.80;;;5.40;;
4555;SDS011;2290;48.674;9.018;2023-06-22T10:47:39;8.27;;;5.77;;
4555;SDS011;2290;48.674;9.018;2023-06-22T10:50:07;9.13;;;5.37;;
4555;SDS011;2290;48.674;9.018;2023-06-22T10:52:34;6.27;;;5.30;;
4555;SDS011;2290;48.674;9.018;2023-06-22T10:55:01;7.30;;;6.07;;
4555;SDS011;2290;48.674;9.018;2023-06-22T10:57:27;11.90;;;6.40;;
4555;SDS011;2290;48.674;9.018;2023-06-22T10:59:52;9.93;;;6.07;;
4555;SDS011;2290;48.674;9.018;2023-06-22T11:02:19;9.37;;;6.43;;
4555;SDS011;2290;48.674;9.018;2023-06-22T11:04:44;10.50;;;5.40;;
4555;SDS011;2290;48.674;9.018;2023-06-22T11:07:11;12.27;;;7.00;;
4555;SDS011;2290;48.674;9.018;2023-06-22T11:09:36;12.10;;;5.73;;
4555;SDS011;2290;48.674;9.018;2023-06-22T11:12:03;8.27;;;5.17;;
4555;SDS011;2290;48.674;9.018;2023-06-22T11:14:29;11.50;;;6.20;;
4555;SDS011;2290;48.674;9.018;2023-06-22T11:16:54;14.30;;;5.93;;
4555;SDS011;2290;48.674;9.018;2023-06-22T11:19:21;11.00;;;6.27;;
4555;SDS011;2290;48.674;9.018;2023-06-22T11:21:46;7.10;;;5.70;;
4555;SDS011;2290;48.674;9.018;2023-06-22T11:24:12;9.60;;;5.90;;
4555;SDS011;2290;48.674;9.018;2023-06-22T11:26:39;12.10;;;5.80;;
4555;SDS011;2290;48.674;9.018;2023-06-22T11:29:04;8.67;;;6.20;;
4555;SDS011;2290;48.674;9.018;2023-06-22T11:31:30;16.50;;;7.13;;
4555;SDS011;2290;48.674;9.018;2023-06-22T11:33:56;9.90;;;6.73;;
4555;SDS011;2290;48.674;9.018;2023-06-22T11:36:22;9.40;;;5.87;;
4555;SDS011;2290;48.674;9.018;2023-06-22T11:38:47;8.53;;;5.43;;
4555;SDS011;2290;48.674;9.018;2023-06-22T11:41:13;7.60;;;5.70;;
4555;SDS011;2290;48.674;9.018;2023-06-22T11:43:39;10.30;;;5.50;;
4555;SDS011;2290;48.674;9.018;2023-06-22T11:46:04;13.17;;;5.90;;
4555;SDS011;2290;48.674;9.018;2023-06-22T11:48:30;10.40;;;6.13;;
4555;SDS011;2290;48.674;9.018;2023-06-22T11:50:58;12.37;;;7.13;;
4555;SDS011;2290;48.674;9.018;2023-06-22T11:53:24;11.30;;;6.73;;
4555;SDS011;2290;48.674;9.018;2023-06-22T11:55:50;9.87;;;5.47;;
4555;SDS011;2290;48.674;9.018;2023-06-22T11:58:17;10.30;;;6.63;;
4555;SDS011;2290;48.674;9.018;2023-06-22T12:00:43;11.43;;;6.47;;
4555;SDS011;2290;48.674;9.018;2023-06-22T12:03:08;12.40;;;6.90;;
4555;SDS011;2290;48.674;9.018;2023-06-22T12:05:34;10.03;;;6.17;;
4555;SDS011;2290;48.674;9.018;2023-06-22T12:08:00;12.17;;;6.07;;
4555;SDS011;2290;48.674;9.018;2023-06-22T12:10:26;13.23;;;6.33;;
4555;SDS011;2290;48.674;9.018;2023-06-22T12:12:53;14.17;;;6.63;;
4555;SDS011;2290;48.674;9.018;2023-06-22T12:15:19;11.50;;;6.33;;
4555;SDS011;2290;48.674;9.018;2023-06-22T12:17:45;8.63;;;6.20;;
4555;SDS011;2290;48.674;9.018;2023-06-22T12:20:10;9.70;;;6.60;;
4555;SDS011;2290;48.674;9.018;2023-06-22T12:22:36;8.73;;;6.17;;
4555;SDS011;2290;48.674;9.018;2023-06-22T12:25:02;11.10;;;7.60;;
4555;SDS011;2290;48.674;9.018;2023-06-22T12:27:28;11.17;;;6.73;;
4555;SDS011;2290;48.674;9.018;2023-06-22T12:29:55;13.03;;;7.60;;
4555;SDS011;2290;48.674;9.018;2023-06-22T12:32:21;11.30;;;6.93;;
4555;SDS011;2290;48.674;9.018;2023-06-22T12:34:47;13.20;;;6.40;;
4555;SDS011;2290;48.674;9.018;2023-06-22T12:37:12;9.00;;;6.10;;
4555;SDS011;2290;48.674;9.018;2023-06-22T12:39:39;11.77;;;7.27;;
4555;SDS011;2290;48.674;9.018;2023-06-22T12:42:05;8.90;;;6.63;;
4555;SDS011;2290;48.674;9.018;2023-06-22T12:44:33;8.60;;;5.80;;
4555;SDS011;2290;48.674;9.018;2023-06-22T12:46:59;8.47;;;6.30;;
4555;SDS011;2290;48.674;9.018;2023-06-22T12:49:25;9.10;;;6.47;;
4555;SDS011;2290;48.674;9.018;2023-06-22T12:51:50;10.43;;;6.47;;
4555;SDS011;2290;48.674;9.018;2023-06-22T12:54:16;8.23;;;6.20;;
4555;SDS011;2290;48.674;9.018;2023-06-22T12:56:41;10.70;;;6.00;;
4555;SDS011;2290;48.674;9.018;2023-06-22T12:59:09;13.50;;;7.00;;
4555;SDS011;2290;48.674;9.018;2023-06-22T13:01:35;13.00;;;5.97;;
4555;SDS011;2290;48.674;9.018;2023-06-22T13:04:02;14.60;;;7.47;;
4555;SDS011;2290;48.674;9.018;2023-06-22T13:06:28;9.33;;;6.60;;
4555;SDS011;2290;48.674;9.018;2023-06-22T13:08:53;8.90;;;6.73;;
4555;SDS011;2290;48.674;9.018;2023-06-22T13:11:19;10.00;;;6.40;;
4555;SDS011;2290;48.674;9.018;2023-06-22T13:13:45;7.53;;;5.50;;
4555;SDS011;2290;48.674;9.018;2023-06-22T13:16:11;7.33;;;6.40;;
4555;SDS011;2290;48.674;9.018;2023-06-22T13:18:36;8.77;;;6.33;;
4555;SDS011;2290;48.674;9.018;2023-06-22T13:21:03;11.30;;;6.47;;
4555;SDS011;2290;48.674;9.018;2023-06-22T13:23:29;8.53;;;6.03;;
4555;SDS011;2290;48.674;9.018;2023-06-22T13:25:57;7.77;;;5.60;;
4555;SDS011;2290;48.674;9.018;2023-06-22T13:28:23;9.20;;;5.87;;
4555;SDS011;2290;48.674;9.018;2023-06-22T13:30:48;15.73;;;6.50;;
4555;SDS011;2290;48.674;9.018;2023-06-22T13:33:14;11.20;;;7.00;;
4555;SDS011;2290;48.674;9.018;2023-06-22T13:35:40;13.30;;;6.90;;
4555;SDS011;2290;48.674;9.018;2023-06-22T13:38:07;9.00;;;5.50;;
4555;SDS011;2290;48.674;9.018;2023-06-22T13:40:36;19.70;;;5.63;;
4555;SDS011;2290;48.674;9.018;2023-06-22T13:43:05;9.97;;;5.90;;
4555;SDS011;2290;48.674;9.018;2023-06-22T13:45:32;8.70;;;6.13;;
4555;SDS011;2290;48.674;9.018;2023-06-22T13:47:58;9.20;;;6.50;;
4555;SDS011;2290;48.674;9.018;2023-06-22T13:50:23;11.20;;;7.90;;
4555;SDS011;2290;48.674;9.018;2023-06-22T13:52:49;11.23;;;5.60;;
4555;SDS011;2290;48.674;9.018;2023-06-22T13:55:15;8.30;;;5.80;;
4555;SDS011;2290;48.674;9.018;2023-06-22T13:57:40;9.50;;;5.83;;
4555;SDS011;2290;48.674;9.018;2023-06-22T14:00:07;9.40;;;5.60;;
4555;SDS011;2290;48.674;9.018;2023-06-22T14:02:34;9.50;;;6.17;;
4555;SDS011;2290;48.674;9.018;2023-06-22T14:05:00;8.13;;;5.50;;
4555;SDS011;2290;48.674;9.018;2023-06-22T14:07:27;8.77;;;6.27;;
4555;SDS011;2290;48.674;9.018;2023-06-22T14:09:52;9.53;;;6.97;;
4555;SDS011;2290;48.674;9.018;2023-06-22T14:12:18;12.73;;;5.57;;
4555;SDS011;2290;48.674;9.018;2023-06-22T14:14:44;9.00;;;5.70;;
4555;SDS011;2290;48.674;9.018;2023-06-22T14:17:09;8.17;;;5.57;;
4555;SDS011;2290;48.674;9.018;2023-06-22T14:19:35;5.50;;;4.10;;
4555;SDS011;2290;48.674;9.018;2023-06-22T14:22:01;11.53;;;5.93;;
4555;SDS011;2290;48.674;9.018;2023-06-22T14:24:27;16.33;;;4.33;;
4555;SDS011;2290;48.674;9.018;2023-06-22T14:26:53;13.47;;;4.53;;
4555;SDS011;2290;48.674;9.018;2023-06-22T14:29:19;5.97;;;3.87;;
4555;SDS011;2290;48.674;9.018;2023-06-22T14:31:44;5.23;;;3.60;;
4555;SDS011;2290;48.674;9.018;2023-06-22T14:34:11;12.10;;;4.20;;
4555;SDS011;2290;48.674;9.018;2023-06-22T14:36:37;6.13;;;3.47;;
4555;SDS011;2290;48.674;9.018;2023-06-22T14:39:03;8.30;;;2.77;;
4555;SDS011;2290;48.674;9.018;2023-06-22T14:41:29;5.93;;;3.37;;
4555;SDS011;2290;48.674;9.018;2023-06-22T14:43:55;5.50;;;2.80;;
4555;SDS011;2290;48.674;9.018;2023-06-22T14:46:21;6.60;;;3.50;;
4555;SDS011;2290;48.674;9.018;2023-06-22T14:48:46;8.03;;;3.20;;
4555;SDS011;2290;48.674;9.018;2023-06-22T14:51:12;9.37;;;3.70;;
4555;SDS011;2290;48.674;9.018;2023-06-22T14:53:39;7.50;;;3.40;;
4555;SDS011;2290;48.674;9.018;2023-06-22T14:56:04;6.73;;;3.17;;
4555;SDS011;2290;48.674;9.018;2023-06-22T14:58:30;6.17;;;3.30;;
4555;SDS011;2290;48.674;9.018;2023-06-22T15:00:58;8.80;;;3.47;;
4555;SDS011;2290;48.674;9.018;2023-06-22T15:03:25;5.40;;;3.90;;
4555;SDS011;2290;48.674;9.018;2023-06-22T15:05:53;5.03;;;3.37;;
4555;SDS011;2290;48.674;9.018;2023-06-22T15:08:20;7.17;;;3.27;;
4555;SDS011;2290;48.674;9.018;2023-06-22T15:10:46;8.13;;;3.17;;
4555;SDS011;2290;48.674;9.018;2023-06-22T15:13:11;5.97;;;3.10;;
4555;SDS011;2290;48.674;9.018;2023-06-22T15:15:37;4.40;;;3.00;;